sensor_id;sensor_type;location;lat;lon;timestamp;pressure;altitude;pressure_sealevel;temperature;humidity
52137;BME280;69622;49.570;10.986;2023-05-07T11:30:38;98412.41;;;20.81;55.86
52137;BME280;69622;49.570;10.986;2023-05-07T11:33:43;98415.00;;;20.67;56.65
52137;BME280;69622;49.570;10.986;2023-05-07T11:36:46;98412.53;;;20.65;58.81
52137;BME280;69622;49.570;10.986;2023-05-07T11:39:49;98422.91;;;20.89;55.02
52137;BME280;69622;49.570;10.986;2023-05-07T11:42:50;98414.78;;;20.53;57.73
52137;BME280;69622;49.570;10.986;2023-05-07T11:45:52;98402.13;;;20.86;56.89
52137;BME280;69622;49.570;10.986;2023-05-07T11:48:55;98412.88;;;20.62;57.40
52137;BME280;69622;49.570;10.986;2023-05-07T11:51:56;98411.94;;;20.78;54.91
52137;BME280;69622;49.570;10.986;2023-05-07T11:54:59;98414.00;;;20.45;56.10
52137;BME280;69622;49.570;10.986;2023-05-07T11:58:01;98413.59;;;20.56;57.60
52137;BME280;69622;49.570;10.986;2023-05-07T12:01:02;98413.94;;;20.76;55.08
52137;BME280;69622;49.570;10.986;2023-05-07T12:04:04;98414.41;;;20.79;55.78
52137;BME280;69622;49.570;10.986;2023-05-07T12:07:14;98411.75;;;20.79;54.81
52137;BME280;69622;49.570;10.986;2023-05-07T12:10:15;98406.63;;;21.01;55.51
52137;BME280;69622;49.570;10.986;2023-05-07T12:13:19;98410.09;;;21.01;56.50
52137;BME280;69622;49.570;10.986;2023-05-07T12:16:21;98413.25;;;21.34;53.22
52137;BME280;69622;49.570;10.986;2023-05-07T12:19:23;98411.63;;;21.48;53.77
52137;BME280;69622;49.570;10.986;2023-05-07T12:22:25;98400.75;;;21.43;54.53
52137;BME280;69622;49.570;10.986;2023-05-07T12:25:26;98395.44;;;21.72;55.79
52137;BME280;69622;49.570;10.986;2023-05-07T12:28:27;98402.06;;;21.98;53.47
52137;BME280;69622;49.570;10.986;2023-05-07T12:31:30;98400.69;;;22.02;52.32
52137;BME280;69622;49.570;10.986;2023-05-07T12:34:31;98397.69;;;22.41;50.30
52137;BME280;69622;49.570;10.986;2023-05-07T12:37:35;98392.97;;;22.22;49.73
52137;BME280;69622;49.570;10.986;2023-05-07T12:40:37;98396.97;;;22.11;50.50
52137;BME280;69622;49.570;10.986;2023-05-07T12:43:39;98401.94;;;22.63;48.71
52137;BME280;69622;49.570;10.986;2023-05-07T12:46:41;98406.03;;;22.87;47.14
52137;BME280;69622;49.570;10.986;2023-05-07T12:49:42;98403.06;;;22.76;46.75
52137;BME280;69622;49.570;10.986;2023-05-07T12:52:47;98406.72;;;22.96;47.88
52137;BME280;69622;49.570;10.986;2023-05-07T12:55:50;98395.09;;;22.97;47.92
52137;BME280;69622;49.570;10.986;2023-05-07T12:58:57;98397.31;;;22.72;46.29
52137;BME280;69622;49.570;10.986;2023-05-07T13:01:58;98393.50;;;22.32;48.14
52137;BME280;69622;49.570;10.986;2023-05-07T13:05:00;98386.56;;;22.09;48.74
52137;BME280;69622;49.570;10.986;2023-05-07T13:08:01;98392.78;;;22.23;49.66
52137;BME280;69622;49.570;10.986;2023-05-07T13:11:04;98388.31;;;22.24;50.35
52137;BME280;69622;49.570;10.986;2023-05-07T13:14:05;98389.34;;;22.08;48.59
52137;BME280;69622;49.570;10.986;2023-05-07T13:17:07;98391.69;;;21.81;50.23
52137;BME280;69622;49.570;10.986;2023-05-07T13:20:11;98394.16;;;21.83;49.41
52137;BME280;69622;49.570;10.986;2023-05-07T13:23:13;98391.41;;;21.62;50.77
52137;BME280;69622;49.570;10.986;2023-05-07T13:26:15;98387.75;;;21.77;49.51
52137;BME280;69622;49.570;10.986;2023-05-07T13:29:27;98382.59;;;21.55;50.02
52137;BME280;69622;49.570;10.986;2023-05-07T13:32:31;98379.09;;;22.20;51.15
52137;BME280;69622;49.570;10.986;2023-05-07T13:35:33;98374.25;;;22.66;46.61
52137;BME280;69622;49.570;10.986;2023-05-07T13:38:34;98375.75;;;22.75;47.03
52137;BME280;69622;49.570;10.986;2023-05-07T13:41:36;98372.19;;;23.17;46.63
52137;BME280;69622;49.570;10.986;2023-05-07T13:44:37;98369.66;;;23.37;46.06
52137;BME280;69622;49.570;10.986;2023-05-07T13:47:39;98375.81;;;23.44;47.74
52137;BME280;69622;49.570;10.986;2023-05-07T13:50:40;98370.97;;;23.54;44.95
52137;BME280;69622;49.570;10.986;2023-05-07T13:53:42;98358.78;;;23.25;44.47
52137;BME280;69622;49.570;10.986;2023-05-07T13:56:43;98360.16;;;22.87;46.79
52137;BME280;69622;49.570;10.986;2023-05-07T13:59:44;98358.25;;;23.43;46.77
52137;BME280;69622;49.570;10.986;2023-05-07T14:02:46;98362.66;;;23.57;45.81
52137;BME280;69622;49.570;10.986;2023-05-07T14:05:47;98360.50;;;23.40;45.38
52137;BME280;69622;49.570;10.986;2023-05-07T14:08:50;98367.81;;;23.03;46.62
52137;BME280;69622;49.570;10.986;2023-05-07T14:11:52;98364.84;;;22.63;46.96
52137;BME280;69622;49.570;10.986;2023-05-07T14:14:53;98366.47;;;22.64;47.64
52137;BME280;69622;49.570;10.986;2023-05-07T14:17:54;98362.31;;;22.77;46.11
52137;BME280;69622;49.570;10.986;2023-05-07T14:20:56;98355.59;;;22.81;44.80
52137;BME280;69622;49.570;10.986;2023-05-07T14:23:57;98348.72;;;22.58;46.51
52137;BME280;69622;49.570;10.986;2023-05-07T14:26:59;98352.56;;;22.34;46.30
52137;BME280;69622;49.570;10.986;2023-05-07T14:30:00;98346.75;;;22.46;47.84
52137;BME280;69622;49.570;10.986;2023-05-07T14:33:02;98343.75;;;22.55;47.35
52137;BME280;69622;49.570;10.986;2023-05-07T14:36:03;98344.50;;;22.92;45.13
52137;BME280;69622;49.570;10.986;2023-05-07T14:39:05;98348.09;;;23.12;43.39
52137;BME280;69622;49.570;10.986;2023-05-07T14:42:07;98351.66;;;23.26;42.06
52137;BME280;69622;49.570;10.986;2023-05-07T14:45:09;98354.28;;;23.26;43.67
52137;BME280;69622;49.570;10.986;2023-05-07T14:48:11;98352.97;;;23.43;45.08
52137;BME280;69622;49.570;10.986;2023-05-07T14:51:16;98356.63;;;23.42;42.18
52137;BME280;69622;49.570;10.986;2023-05-07T14:54:17;98357.59;;;23.35;43.76
52137;BME280;69622;49.570;10.986;2023-05-07T14:57:19;98356.56;;;22.94;44.73
52137;BME280;69622;49.570;10.986;2023-05-07T15:00:20;98349.06;;;22.77;46.93
52137;BME280;69622;49.570;10.986;2023-05-07T15:03:22;98356.88;;;22.85;43.95
52137;BME280;69622;49.570;10.986;2023-05-07T15:06:24;98364.34;;;23.02;45.06
52137;BME280;69622;49.570;10.986;2023-05-07T15:09:26;98374.22;;;22.87;44.87
52137;BME280;69622;49.570;10.986;2023-05-07T15:12:27;98364.38;;;22.81;45.54
52137;BME280;69622;49.570;10.986;2023-05-07T15:15:28;98369.28;;;23.06;45.45
52137;BME280;69622;49.570;10.986;2023-05-07T15:18:30;98365.13;;;23.31;44.36
52137;BME280;69622;49.570;10.986;2023-05-07T15:21:31;98368.66;;;23.38;44.50
52137;BME280;69622;49.570;10.986;2023-05-07T15:24:35;98369.09;;;23.07;44.10
52137;BME280;69622;49.570;10.986;2023-05-07T15:27:36;98367.19;;;22.73;44.86
52137;BME280;69622;49.570;10.986;2023-05-07T15:30:38;98369.16;;;22.71;44.99
52137;BME280;69622;49.570;10.986;2023-05-07T15:33:40;98367.09;;;22.66;44.92
52137;BME280;69622;49.570;10.986;2023-05-07T15:36:41;98363.53;;;22.53;45.68
52137;BME280;69622;49.570;10.986;2023-05-07T15:39:43;98360.94;;;22.59;44.33
52137;BME280;69622;49.570;10.986;2023-05-07T15:42:45;98367.13;;;22.45;44.01
52137;BME280;69622;49.570;10.986;2023-05-07T15:45:47;98354.91;;;22.44;44.44
52137;BME280;69622;49.570;10.986;2023-05-07T15:48:48;98364.69;;;22.44;43.84
52137;BME280;69622;49.570;10.986;2023-05-07T15:51:50;98359.44;;;22.29;45.14
52137;BME280;69622;49.570;10.986;2023-05-07T15:54:52;98361.50;;;22.33;45.76
52137;BME280;69622;49.570;10.986;2023-05-07T15:57:53;98357.94;;;22.41;43.28
52137;BME280;69622;49.570;10.986;2023-05-07T16:00:55;98356.53;;;22.24;45.37
52137;BME280;69622;49.570;10.986;2023-05-07T16:03:57;98352.81;;;22.39;44.08
52137;BME280;69622;49.570;10.986;2023-05-07T16:06:58;98358.81;;;22.27;44.00
52137;BME280;69622;49.570;10.986;2023-05-07T16:10:00;98364.22;;;22.19;44.53
52137;BME280;69622;49.570;10.986;2023-05-07T16:13:02;98365.13;;;22.26;44.72
52137;BME280;69622;49.570;10.986;2023-05-07T16:16:04;98368.38;;;22.06;44.82
52137;BME280;69622;49.570;10.986;2023-05-07T16:19:06;98373.13;;;22.11;43.88
52137;BME280;69622;49.570;10.986;2023-05-07T16:22:08;98368.28;;;22.00;44.59
52137;BME280;69622;49.570;10.986;2023-05-07T16:25:09;98376.69;;;21.89;45.45
52137;BME280;69622;49.570;10.986;2023-05-07T16:28:13;98374.25;;;21.72;45.17
52137;BME280;69622;49.570;10.986;2023-05-07T16:31:15;98381.75;;;21.69;45.44
52137;BME280;69622;49.570;10.986;2023-05-07T16:34:17;98377.53;;;21.74;45.85
52137;BME280;69622;49.570;10.986;2023-05-07T16:39:13;98382.78;;;21.53;46.30
52137;BME280;69622;49.570;10.986;2023-05-07T16:42:15;98391.72;;;21.52;46.16
52137;BME280;69622;49.570;10.986;2023-05-07T16:45:16;98390.53;;;21.40;46.79
52137;BME280;69622;49.570;10.986;2023-05-07T16:48:19;98400.84;;;21.49;45.86
52137;BME280;69622;49.570;10.986;2023-05-07T16:51:21;98391.34;;;21.40;46.64
52137;BME280;69622;49.570;10.986;2023-05-07T16:54:24;98391.47;;;21.47;46.56
52137;BME280;69622;49.570;10.986;2023-05-07T16:57:27;98388.06;;;21.38;46.87
52137;BME280;69622;49.570;10.986;2023-05-07T17:00:29;98396.34;;;21.20;47.65
52137;BME280;69622;49.570;10.986;2023-05-07T17:03:49;98400.53;;;21.15;47.48
52137;BME280;69622;49.570;10.986;2023-05-07T17:06:50;98407.63;;;21.14;48.49
52137;BME280;69622;49.570;10.986;2023-05-07T17:09:52;98405.81;;;21.00;48.92
52137;BME280;69622;49.570;10.986;2023-05-07T17:12:53;98400.75;;;20.90;48.76
52137;BME280;69622;49.570;10.986;2023-05-07T17:15:55;98404.78;;;20.86;49.31
52137;BME280;69622;49.570;10.986;2023-05-07T17:18:56;98412.13;;;20.76;49.16
52137;BME280;69622;49.570;10.986;2023-05-07T17:21:58;98411.94;;;20.78;48.92
52137;BME280;69622;49.570;10.986;2023-05-07T17:24:59;98419.75;;;20.71;49.40
52137;BME280;69622;49.570;10.986;2023-05-07T17:28:03;98413.66;;;20.71;49.42
52137;BME280;69622;49.570;10.986;2023-05-07T17:31:05;98420.06;;;20.53;50.42
52137;BME280;69622;49.570;10.986;2023-05-07T17:34:06;98429.09;;;20.59;49.33
52137;BME280;69622;49.570;10.986;2023-05-07T17:37:07;98427.09;;;20.61;49.64
52137;BME280;69622;49.570;10.986;2023-05-07T17:40:09;98431.84;;;20.66;48.98
52137;BME280;69622;49.570;10.986;2023-05-07T17:43:11;98433.31;;;20.45;48.85
52137;BME280;69622;49.570;10.986;2023-05-07T17:46:12;98432.09;;;20.25;49.23
52137;BME280;69622;49.570;10.986;2023-05-07T17:49:14;98433.78;;;20.18;50.16
52137;BME280;69622;49.570;10.986;2023-05-07T17:52:16;98438.38;;;20.24;49.56
52137;BME280;69622;49.570;10.986;2023-05-07T17:55:17;98444.88;;;20.13;50.75
52137;BME280;69622;49.570;10.986;2023-05-07T17:58:19;98442.13;;;20.07;50.58
52137;BME280;69622;49.570;10.986;2023-05-07T18:01:22;98445.25;;;20.02;50.58
52137;BME280;69622;49.570;10.986;2023-05-07T18:04:25;98457.13;;;20.06;50.13
52137;BME280;69622;49.570;10.986;2023-05-07T18:07:28;98458.78;;;19.99;51.51
52137;BME280;69622;49.570;10.986;2023-05-07T18:10:29;98459.63;;;19.99;51.08
52137;BME280;69622;49.570;10.986;2023-05-07T18:13:31;98466.25;;;19.87;51.56
52137;BME280;69622;49.570;10.986;2023-05-07T18:16:33;98467.66;;;19.75;52.77
52137;BME280;69622;49.570;10.986;2023-05-07T18:19:34;98473.53;;;19.85;52.90
52137;BME280;69622;49.570;10.986;2023-05-07T18:22:37;98478.84;;;19.77;51.68
52137;BME280;69622;49.570;10.986;2023-05-07T18:25:38;98481.03;;;19.65;52.31
52137;BME280;69622;49.570;10.986;2023-05-07T18:28:40;98489.41;;;19.53;51.81
52137;BME280;69622;49.570;10.986;2023-05-07T18:31:41;98483.22;;;19.29;52.45
52137;BME280;69622;49.570;10.986;2023-05-07T18:34:43;98487.66;;;19.29;51.99
52137;BME280;69622;49.570;10.986;2023-05-07T18:37:44;98487.34;;;19.15;51.66
52137;BME280;69622;49.570;10.986;2023-05-07T18:40:46;98491.78;;;19.15;50.73
52137;BME280;69622;49.570;10.986;2023-05-07T18:43:47;98501.34;;;19.08;51.40
52137;BME280;69622;49.570;10.986;2023-05-07T18:46:49;98499.22;;;18.95;51.25
52137;BME280;69622;49.570;10.986;2023-05-07T18:49:50;98499.53;;;18.92;50.95
52137;BME280;69622;49.570;10.986;2023-05-07T18:52:52;98505.94;;;18.81;51.33
52137;BME280;69622;49.570;10.986;2023-05-07T18:55:53;98509.56;;;18.89;51.00
52137;BME280;69622;49.570;10.986;2023-05-07T18:58:55;98518.13;;;18.91;50.93
52137;BME280;69622;49.570;10.986;2023-05-07T19:01:56;98515.16;;;18.77;51.67
52137;BME280;69622;49.570;10.986;2023-05-07T19:04:58;98517.78;;;18.69;51.54
52137;BME280;69622;49.570;10.986;2023-05-07T19:07:59;98524.31;;;18.57;51.53
52137;BME280;69622;49.570;10.986;2023-05-07T19:11:01;98536.47;;;18.50;51.81
52137;BME280;69622;49.570;10.986;2023-05-07T19:14:03;98529.56;;;18.49;51.71
52137;BME280;69622;49.570;10.986;2023-05-07T19:17:05;98540.22;;;18.39;52.24
52137;BME280;69622;49.570;10.986;2023-05-07T19:20:07;98542.63;;;18.24;51.21
52137;BME280;69622;49.570;10.986;2023-05-07T19:23:10;98552.19;;;18.25;51.23
52137;BME280;69622;49.570;10.986;2023-05-07T19:26:12;98546.91;;;18.25;51.97
52137;BME280;69622;49.570;10.986;2023-05-07T19:29:13;98546.84;;;18.09;52.00
52137;BME280;69622;49.570;10.986;2023-05-07T19:32:18;98552.78;;;18.11;51.98
52137;BME280;69622;49.570;10.986;2023-05-07T19:35:21;98558.41;;;18.16;51.85
52137;BME280;69622;49.570;10.986;2023-05-07T19:38:24;98563.69;;;18.16;51.71
52137;BME280;69622;49.570;10.986;2023-05-07T19:41:27;98566.56;;;18.05;52.45
52137;BME280;69622;49.570;10.986;2023-05-07T19:44:29;98580.72;;;18.04;51.66
52137;BME280;69622;49.570;10.986;2023-05-07T19:47:30;98578.50;;;17.91;52.91
52137;BME280;69622;49.570;10.986;2023-05-07T19:50:32;98588.09;;;17.75;52.62
52137;BME280;69622;49.570;10.986;2023-05-07T19:53:33;98595.50;;;17.79;53.17
52137;BME280;69622;49.570;10.986;2023-05-07T19:56:34;98593.34;;;17.75;53.04
52137;BME280;69622;49.570;10.986;2023-05-07T19:59:36;98588.41;;;17.72;53.31
52137;BME280;69622;49.570;10.986;2023-05-07T20:02:37;98603.22;;;17.73;53.57
52137;BME280;69622;49.570;10.986;2023-05-07T20:05:39;98611.09;;;17.55;54.59
52137;BME280;69622;49.570;10.986;2023-05-07T20:08:40;98616.94;;;17.49;54.62
52137;BME280;69622;49.570;10.986;2023-05-07T20:11:43;98621.63;;;17.55;54.85
52137;BME280;69622;49.570;10.986;2023-05-07T20:14:45;98626.28;;;17.43;55.92
52137;BME280;69622;49.570;10.986;2023-05-07T20:17:46;98624.28;;;17.37;56.13
52137;BME280;69622;49.570;10.986;2023-05-07T20:20:47;98628.31;;;17.31;56.52
52137;BME280;69622;49.570;10.986;2023-05-07T20:23:49;98636.78;;;17.43;55.67
52137;BME280;69622;49.570;10.986;2023-05-07T20:26:51;98636.78;;;17.43;55.68
52137;BME280;69622;49.570;10.986;2023-05-07T20:29:53;98643.66;;;17.36;55.91
52137;BME280;69622;49.570;10.986;2023-05-07T20:32:54;98643.75;;;17.34;56.71
52137;BME280;69622;49.570;10.986;2023-05-07T20:35:57;98642.72;;;17.27;57.11
52137;BME280;69622;49.570;10.986;2023-05-07T20:38:58;98647.47;;;17.24;56.42
52137;BME280;69622;49.570;10.986;2023-05-07T20:42:00;98652.09;;;17.12;57.51
52137;BME280;69622;49.570;10.986;2023-05-07T20:45:01;98661.25;;;17.08;57.90
52137;BME280;69622;49.570;10.986;2023-05-07T20:48:04;98664.09;;;16.97;58.11
52137;BME280;69622;49.570;10.986;2023-05-07T20:51:06;98670.09;;;16.89;58.03
52137;BME280;69622;49.570;10.986;2023-05-07T20:54:10;98672.31;;;16.84;58.86
52137;BME280;69622;49.570;10.986;2023-05-07T20:57:13;98668.78;;;16.75;58.19
52137;BME280;69622;49.570;10.986;2023-05-07T21:00:14;98675.28;;;16.71;59.18
52137;BME280;69622;49.570;10.986;2023-05-07T21:03:17;98680.97;;;16.67;59.62
52137;BME280;69622;49.570;10.986;2023-05-07T21:06:19;98688.00;;;16.66;59.07
52137;BME280;69622;49.570;10.986;2023-05-07T21:09:20;98694.94;;;16.67;58.88
52137;BME280;69622;49.570;10.986;2023-05-07T21:12:22;98686.22;;;16.67;59.44
52137;BME280;69622;49.570;10.986;2023-05-07T21:15:23;98688.13;;;16.74;59.15
52137;BME280;69622;49.570;10.986;2023-05-07T21:18:25;98695.31;;;16.72;59.97
52137;BME280;69622;49.570;10.986;2023-05-07T21:21:26;98694.22;;;16.75;59.93
52137;BME280;69622;49.570;10.986;2023-05-07T21:24:28;98698.09;;;16.71;60.15
52137;BME280;69622;49.570;10.986;2023-05-07T21:27:29;98700.00;;;16.79;60.56
52137;BME280;69622;49.570;10.986;2023-05-07T21:30:31;98696.16;;;16.73;60.60
52137;BME280;69622;49.570;10.986;2023-05-07T21:33:32;98701.84;;;16.59;60.05
52137;BME280;69622;49.570;10.986;2023-05-07T21:36:34;98700.09;;;16.50;61.15
52137;BME280;69622;49.570;10.986;2023-05-07T21:39:35;98700.53;;;16.35;60.58
52137;BME280;69622;49.570;10.986;2023-05-07T21:42:37;98704.72;;;16.28;60.96
52137;BME280;69622;49.570;10.986;2023-05-07T21:45:38;98710.13;;;16.17;61.39
52137;BME280;69622;49.570;10.986;2023-05-07T21:48:41;98706.53;;;16.08;62.06
52137;BME280;69622;49.570;10.986;2023-05-07T21:51:42;98709.88;;;16.01;62.11
52137;BME280;69622;49.570;10.986;2023-05-07T21:54:43;98718.03;;;15.98;62.62
52137;BME280;69622;49.570;10.986;2023-05-07T21:57:45;98709.88;;;16.01;62.62
52137;BME280;69622;49.570;10.986;2023-05-07T22:01:05;98710.00;;;16.09;61.78
52137;BME280;69622;49.570;10.986;2023-05-07T22:04:06;98706.00;;;16.05;62.43
52137;BME280;69622;49.570;10.986;2023-05-07T22:07:08;98713.75;;;15.97;63.27
52137;BME280;69622;49.570;10.986;2023-05-07T22:10:09;98709.75;;;16.02;63.35
52137;BME280;69622;49.570;10.986;2023-05-07T22:13:11;98716.91;;;16.00;62.86
52137;BME280;69622;49.570;10.986;2023-05-07T22:16:13;98711.94;;;16.07;63.68
52137;BME280;69622;49.570;10.986;2023-05-07T22:19:14;98728.50;;;16.07;63.88
52137;BME280;69622;49.570;10.986;2023-05-07T22:22:16;98732.09;;;16.06;63.74
52137;BME280;69622;49.570;10.986;2023-05-07T22:25:20;98735.97;;;16.12;64.64
52137;BME280;69622;49.570;10.986;2023-05-07T22:28:21;98732.91;;;16.16;65.34
52137;BME280;69622;49.570;10.986;2023-05-07T22:31:23;98736.94;;;16.11;64.08
52137;BME280;69622;49.570;10.986;2023-05-07T22:34:24;98742.31;;;16.00;63.88
52137;BME280;69622;49.570;10.986;2023-05-07T22:37:26;98739.72;;;15.80;64.76
52137;BME280;69622;49.570;10.986;2023-05-07T22:40:28;98747.56;;;15.61;64.76
52137;BME280;69622;49.570;10.986;2023-05-07T22:43:29;98749.63;;;15.77;64.05
52137;BME280;69622;49.570;10.986;2023-05-07T22:46:31;98746.06;;;15.68;64.43
52137;BME280;69622;49.570;10.986;2023-05-07T22:49:34;98747.25;;;15.54;65.18
52137;BME280;69622;49.570;10.986;2023-05-07T22:52:35;98742.94;;;15.44;65.01
52137;BME280;69622;49.570;10.986;2023-05-07T22:55:37;98748.63;;;15.49;65.23
52137;BME280;69622;49.570;10.986;2023-05-07T22:58:38;98758.28;;;15.58;65.25
52137;BME280;69622;49.570;10.986;2023-05-07T23:01:40;98758.00;;;15.51;65.57
52137;BME280;69622;49.570;10.986;2023-05-07T23:04:41;98758.56;;;15.55;65.59
52137;BME280;69622;49.570;10.986;2023-05-07T23:07:43;98759.97;;;15.59;66.11
52137;BME280;69622;49.570;10.986;2023-05-07T23:10:44;98750.19;;;15.61;65.77
52137;BME280;69622;49.570;10.986;2023-05-07T23:13:46;98750.31;;;15.60;65.27
52137;BME280;69622;49.570;10.986;2023-05-07T23:16:47;98754.72;;;15.59;65.87
52137;BME280;69622;49.570;10.986;2023-05-07T23:19:48;98759.66;;;15.52;66.17
52137;BME280;69622;49.570;10.986;2023-05-07T23:22:50;98758.53;;;15.45;66.03
52137;BME280;69622;49.570;10.986;2023-05-07T23:25:51;98756.06;;;15.44;66.14
52137;BME280;69622;49.570;10.986;2023-05-07T23:28:53;98742.81;;;15.36;66.81
52137;BME280;69622;49.570;10.986;2023-05-07T23:31:54;98749.84;;;15.35;66.24
52137;BME280;69622;49.570;10.986;2023-05-07T23:34:56;98757.41;;;15.19;67.02
52137;BME280;69622;49.570;10.986;2023-05-07T23:37:57;98762.75;;;15.08;66.76
52137;BME280;69622;49.570;10.986;2023-05-07T23:40:59;98762.31;;;15.03;67.71
52137;BME280;69622;49.570;10.986;2023-05-07T23:44:00;98764.25;;;15.01;67.02
52137;BME280;69622;49.570;10.986;2023-05-07T23:47:02;98763.56;;;15.08;67.47
52137;BME280;69622;49.570;10.986;2023-05-07T23:50:04;98764.66;;;15.06;67.33
52137;BME280;69622;49.570;10.986;2023-05-07T23:53:05;98762.59;;;15.09;66.88
52137;BME280;69622;49.570;10.986;2023-05-07T23:56:07;98757.34;;;15.00;67.49
52137;BME280;69622;49.570;10.986;2023-05-07T23:59:08;98755.50;;;14.90;68.90
